Time;durP1;ratioP1;P1;durP2;ratioP2;P2;SDS_P1;SDS_P2;PMS_P1;PMS_P2;Temp;Humidity;BMP_temperature;BMP_pressure;BME280_temperature;BME280_humidity;BME280_pressure;Samples;Min_cycle;Max_cycle;Signal;HPM_P1;HPM_P2
2022/06/29 00:00:13;;;;;;;7.05;3.70;;;;;;;;;;5062202;28;20106;-70
2022/06/29 00:02:40;;;;;;;8.50;3.38;;;;;;;;;;5058239;28;20130;-70
2022/06/29 00:05:09;;;;;;;8.38;3.30;;;;;;;;;;5060558;28;20071;-70
2022/06/29 00:07:36;;;;;;;7.05;3.40;;;;;;;;;;5059144;28;20503;-70
2022/06/29 00:10:04;;;;;;;5.72;3.60;;;;;;;;;;5060454;28;20056;-70
2022/06/29 00:12:31;;;;;;;7.00;3.63;;;;;;;;;;5059468;28;20052;-70
2022/06/29 00:15:02;;;;;;;5.10;3.80;;;;;;;;;;5053885;28;20466;-70
2022/06/29 00:17:30;;;;;;;7.60;3.72;;;;;;;;;;5054267;28;20074;-70
2022/06/29 00:19:57;;;;;;;8.73;3.50;;;;;;;;;;5060073;28;20102;-70
2022/06/29 00:22:26;;;;;;;9.32;3.70;;;;;;;;;;5064763;28;20056;-70
2022/06/29 00:24:53;;;;;;;8.35;3.22;;;;;;;;;;5055017;28;20451;-70
2022/06/29 00:27:21;;;;;;;11.82;3.58;;;;;;;;;;5057969;28;20061;-70
2022/06/29 00:29:48;;;;;;;10.60;3.97;;;;;;;;;;5052754;28;20060;-70
2022/06/29 00:32:15;;;;;;;7.53;3.67;;;;;;;;;;5059348;28;20056;-70
2022/06/29 00:34:42;;;;;;;9.63;4.07;;;;;;;;;;5057365;28;20045;-70
2022/06/29 00:37:10;;;;;;;8.10;3.42;;;;;;;;;;5056010;28;20053;-70
2022/06/29 00:39:39;;;;;;;6.72;3.70;;;;;;;;;;5059822;28;20490;-70
2022/06/29 00:42:06;;;;;;;8.57;3.90;;;;;;;;;;5057314;28;20178;-70
2022/06/29 00:44:33;;;;;;;10.00;3.78;;;;;;;;;;5061017;28;20110;-70
2022/06/29 00:47:01;;;;;;;9.25;3.40;;;;;;;;;;5058942;28;20052;-70
2022/06/29 00:49:29;;;;;;;9.55;3.50;;;;;;;;;;5057609;28;20053;-69
2022/06/29 00:52:03;;;;;;;8.70;3.80;;;;;;;;;;5058276;28;20114;-70
2022/06/29 00:54:33;;;;;;;9.32;3.88;;;;;;;;;;5060986;28;20102;-70
2022/06/29 00:57:04;;;;;;;10.70;4.28;;;;;;;;;;5062382;28;20450;-70
2022/06/29 00:59:33;;;;;;;8.18;3.78;;;;;;;;;;5053209;28;20045;-70
2022/06/29 01:02:01;;;;;;;8.05;3.60;;;;;;;;;;5058362;28;20462;-70
2022/06/29 01:04:28;;;;;;;8.70;3.40;;;;;;;;;;5057145;28;20466;-70
2022/06/29 01:06:55;;;;;;;8.20;3.35;;;;;;;;;;5058049;28;20048;-70
2022/06/29 01:09:23;;;;;;;7.88;4.03;;;;;;;;;;5054081;28;20049;-70
2022/06/29 01:11:50;;;;;;;9.32;3.83;;;;;;;;;;5055930;28;20059;-70
2022/06/29 01:14:18;;;;;;;8.55;4.18;;;;;;;;;;5056091;28;20052;-70
2022/06/29 01:16:46;;;;;;;7.90;3.40;;;;;;;;;;5056658;28;20484;-70
2022/06/29 01:19:13;;;;;;;8.38;3.55;;;;;;;;;;5053217;28;20053;-70
2022/06/29 01:21:41;;;;;;;7.63;3.60;;;;;;;;;;5061937;28;20055;-70
2022/06/29 01:24:09;;;;;;;8.27;3.40;;;;;;;;;;5064417;28;20147;-70
2022/06/29 01:26:37;;;;;;;9.05;3.90;;;;;;;;;;5054730;28;20135;-70
2022/06/29 01:29:04;;;;;;;8.00;4.05;;;;;;;;;;5052931;28;20177;-70
2022/06/29 01:31:31;;;;;;;8.18;3.42;;;;;;;;;;5058722;28;20098;-70
2022/06/29 01:34:01;;;;;;;6.90;3.70;;;;;;;;;;5054970;28;20056;-70
2022/06/29 01:36:29;;;;;;;8.60;3.90;;;;;;;;;;5060586;28;20604;-70
2022/06/29 01:38:56;;;;;;;9.07;3.97;;;;;;;;;;5057393;28;20103;-70
2022/06/29 01:41:24;;;;;;;7.63;3.65;;;;;;;;;;5056978;28;20044;-70
2022/06/29 01:43:52;;;;;;;11.20;4.15;;;;;;;;;;5058482;28;20500;-70
2022/06/29 01:46:19;;;;;;;7.03;3.60;;;;;;;;;;5053594;28;20049;-70
2022/06/29 01:48:46;;;;;;;11.23;4.05;;;;;;;;;;5054469;28;20044;-70
2022/06/29 01:51:13;;;;;;;6.05;3.63;;;;;;;;;;5053925;28;20361;-70
2022/06/29 01:53:40;;;;;;;5.72;3.78;;;;;;;;;;5058542;28;20045;-70
2022/06/29 01:56:08;;;;;;;6.82;3.70;;;;;;;;;;5060604;28;20118;-70
2022/06/29 01:58:36;;;;;;;8.52;3.65;;;;;;;;;;5061177;28;20094;-70
2022/06/29 02:01:03;;;;;;;9.45;4.18;;;;;;;;;;5056558;28;20065;-70
2022/06/29 02:03:31;;;;;;;7.65;4.13;;;;;;;;;;5055995;28;20102;-70
2022/06/29 02:05:59;;;;;;;9.25;4.20;;;;;;;;;;5064800;28;20131;-70
2022/06/29 02:08:26;;;;;;;7.32;3.90;;;;;;;;;;5056058;28;20063;-70
2022/06/29 02:10:53;;;;;;;6.88;3.95;;;;;;;;;;5061466;28;20048;-70
2022/06/29 02:13:20;;;;;;;6.80;3.70;;;;;;;;;;5065152;28;20048;-70
2022/06/29 02:15:49;;;;;;;9.75;4.20;;;;;;;;;;5059659;28;20048;-70
2022/06/29 02:18:16;;;;;;;7.90;4.10;;;;;;;;;;5067798;28;20048;-70
2022/06/29 02:20:43;;;;;;;6.30;3.60;;;;;;;;;;5060818;28;20569;-70
2022/06/29 02:23:10;;;;;;;6.80;3.95;;;;;;;;;;5060904;28;20554;-70
2022/06/29 02:25:38;;;;;;;12.57;4.32;;;;;;;;;;5057727;28;20060;-70
2022/06/29 02:28:05;;;;;;;10.02;4.60;;;;;;;;;;5054219;28;20548;-70
2022/06/29 02:36:04;;;;;;;8.95;4.40;;;;;;;;;;5054987;28;20198;-70
2022/06/29 02:38:31;;;;;;;7.07;3.95;;;;;;;;;;5059151;28;20060;-70
2022/06/29 02:40:58;;;;;;;8.93;4.38;;;;;;;;;;5057894;28;20053;-70
2022/06/29 02:43:26;;;;;;;9.13;4.20;;;;;;;;;;5055363;28;20785;-70
2022/06/29 02:45:53;;;;;;;10.65;4.60;;;;;;;;;;5052127;28;20462;-70
2022/06/29 02:48:22;;;;;;;8.13;4.50;;;;;;;;;;5058020;28;20074;-70
2022/06/29 02:50:49;;;;;;;9.80;4.70;;;;;;;;;;5062686;28;20062;-70
2022/06/29 02:53:16;;;;;;;10.18;4.80;;;;;;;;;;5060800;28;20639;-70
2022/06/29 02:55:43;;;;;;;8.30;4.90;;;;;;;;;;5058498;28;20045;-70
2022/06/29 02:58:10;;;;;;;11.70;5.25;;;;;;;;;;5058477;28;20053;-70
2022/06/29 03:00:38;;;;;;;7.68;4.50;;;;;;;;;;5061882;28;20053;-70
2022/06/29 03:03:05;;;;;;;7.85;4.78;;;;;;;;;;5064726;28;20044;-70
2022/06/29 03:05:33;;;;;;;6.18;5.00;;;;;;;;;;5057809;28;20404;-70
2022/06/29 03:08:01;;;;;;;7.97;4.75;;;;;;;;;;5063658;28;20061;-70
2022/06/29 03:10:28;;;;;;;7.68;4.63;;;;;;;;;;5061272;28;20395;-70
2022/06/29 03:12:55;;;;;;;10.65;4.88;;;;;;;;;;5058797;28;20422;-70
2022/06/29 03:15:25;;;;;;;5.65;4.90;;;;;;;;;;5055939;28;20044;-70
2022/06/29 03:17:53;;;;;;;9.55;4.95;;;;;;;;;;5058566;28;20055;-70
2022/06/29 03:20:20;;;;;;;5.55;4.47;;;;;;;;;;5055720;28;20054;-70
2022/06/29 03:22:48;;;;;;;9.45;4.85;;;;;;;;;;5063014;28;20070;-70
2022/06/29 03:25:16;;;;;;;7.93;4.68;;;;;;;;;;5066736;28;20049;-70
2022/06/29 03:27:43;;;;;;;7.30;4.72;;;;;;;;;;5067830;28;20053;-70
2022/06/29 03:30:11;;;;;;;7.85;4.85;;;;;;;;;;5066076;28;20063;-70
2022/06/29 03:32:38;;;;;;;7.72;4.90;;;;;;;;;;5071544;28;20048;-70
2022/06/29 03:35:06;;;;;;;8.10;5.30;;;;;;;;;;5069739;28;20078;-70
2022/06/29 03:37:33;;;;;;;8.23;5.22;;;;;;;;;;5067359;28;20037;-70
2022/06/29 03:40:02;;;;;;;13.07;5.10;;;;;;;;;;5066969;28;20113;-70
2022/06/29 03:42:30;;;;;;;7.53;4.82;;;;;;;;;;5066616;28;20052;-70
2022/06/29 03:44:57;;;;;;;6.60;5.00;;;;;;;;;;5066730;28;20588;-70
2022/06/29 03:47:25;;;;;;;8.48;5.30;;;;;;;;;;5065238;28;20056;-70
2022/06/29 03:49:52;;;;;;;8.00;4.93;;;;;;;;;;5078679;28;20061;-70
2022/06/29 03:52:20;;;;;;;8.32;4.72;;;;;;;;;;5062573;28;20120;-70
2022/06/29 03:54:48;;;;;;;9.60;4.35;;;;;;;;;;5067409;28;20060;-70
2022/06/29 03:57:16;;;;;;;7.68;4.75;;;;;;;;;;5063503;28;20083;-70
2022/06/29 03:59:43;;;;;;;9.05;4.72;;;;;;;;;;5065008;28;20049;-70
2022/06/29 04:02:11;;;;;;;7.15;4.50;;;;;;;;;;5063410;28;20056;-70
2022/06/29 04:04:38;;;;;;;8.63;4.65;;;;;;;;;;5066430;28;20545;-70
2022/06/29 04:07:05;;;;;;;6.60;4.25;;;;;;;;;;5066356;28;20044;-70
2022/06/29 04:09:32;;;;;;;6.07;4.68;;;;;;;;;;5066468;28;20052;-70
2022/06/29 04:11:59;;;;;;;8.80;4.75;;;;;;;;;;5064025;28;20108;-70
2022/06/29 04:14:29;;;;;;;10.95;4.30;;;;;;;;;;5072898;28;20063;-70
2022/06/29 04:16:57;;;;;;;11.18;5.47;;;;;;;;;;5067842;28;20080;-70
2022/06/29 04:19:24;;;;;;;8.98;4.68;;;;;;;;;;5062986;28;20065;-70
2022/06/29 04:21:51;;;;;;;8.23;4.78;;;;;;;;;;5064942;28;20109;-70
2022/06/29 04:24:19;;;;;;;8.43;4.30;;;;;;;;;;5061475;28;20056;-70
2022/06/29 04:26:46;;;;;;;7.20;4.28;;;;;;;;;;5068830;28;20074;-70
2022/06/29 04:29:13;;;;;;;7.15;4.15;;;;;;;;;;5065539;28;20072;-70
2022/06/29 04:31:42;;;;;;;9.30;4.75;;;;;;;;;;5068928;28;20449;-70
2022/06/29 04:34:09;;;;;;;7.32;3.80;;;;;;;;;;5066486;28;20110;-70
2022/06/29 04:36:37;;;;;;;9.48;4.50;;;;;;;;;;5065648;28;20063;-70
2022/06/29 04:39:04;;;;;;;8.98;4.30;;;;;;;;;;5061052;28;20055;-70
2022/06/29 04:41:31;;;;;;;9.73;4.18;;;;;;;;;;5067062;28;20064;-70
2022/06/29 04:43:58;;;;;;;7.50;4.13;;;;;;;;;;5067557;28;20193;-70
2022/06/29 04:46:26;;;;;;;7.57;4.43;;;;;;;;;;5064687;28;20067;-70
2022/06/29 04:48:56;;;;;;;7.60;4.07;;;;;;;;;;5063295;28;20082;-70
2022/06/29 04:51:23;;;;;;;9.00;4.65;;;;;;;;;;5066621;28;20079;-70
2022/06/29 04:53:54;;;;;;;8.48;4.50;;;;;;;;;;5065699;28;20045;-70
2022/06/29 04:56:21;;;;;;;8.18;4.18;;;;;;;;;;5065052;28;20185;-70
2022/06/29 04:58:48;;;;;;;7.07;4.75;;;;;;;;;;5066921;28;20060;-70
2022/06/29 05:01:16;;;;;;;7.28;4.05;;;;;;;;;;5064633;28;20532;-70
2022/06/29 05:03:43;;;;;;;6.57;4.20;;;;;;;;;;5066842;28;20084;-70
2022/06/29 05:06:11;;;;;;;8.27;3.80;;;;;;;;;;5068096;28;20063;-70
2022/06/29 05:08:39;;;;;;;5.93;4.35;;;;;;;;;;5063419;28;20059;-70
2022/06/29 05:11:06;;;;;;;7.88;4.80;;;;;;;;;;5065505;28;20090;-70
2022/06/29 05:13:33;;;;;;;4.78;3.78;;;;;;;;;;5070406;28;20471;-70
2022/06/29 05:16:00;;;;;;;6.07;3.97;;;;;;;;;;5064677;28;20060;-70
2022/06/29 05:18:28;;;;;;;8.35;4.32;;;;;;;;;;5061751;28;20102;-70
2022/06/29 05:20:56;;;;;;;7.97;4.32;;;;;;;;;;5060365;28;20497;-70
2022/06/29 05:23:25;;;;;;;6.63;3.97;;;;;;;;;;5064900;28;20059;-70
2022/06/29 05:25:52;;;;;;;7.72;4.13;;;;;;;;;;5064825;28;20527;-70
2022/06/29 05:28:20;;;;;;;7.60;3.80;;;;;;;;;;5063471;28;20040;-70
2022/06/29 05:30:47;;;;;;;8.98;3.90;;;;;;;;;;5064844;28;20053;-70
2022/06/29 05:33:14;;;;;;;5.90;3.60;;;;;;;;;;5068134;28;20053;-70
2022/06/29 05:35:41;;;;;;;7.13;3.50;;;;;;;;;;5067267;28;20075;-70
2022/06/29 05:38:09;;;;;;;4.85;3.38;;;;;;;;;;5066962;28;20055;-70
2022/06/29 05:40:37;;;;;;;7.47;3.03;;;;;;;;;;5067753;28;20056;-70
2022/06/29 05:43:05;;;;;;;5.85;3.10;;;;;;;;;;5067273;28;20525;-70
2022/06/29 05:45:32;;;;;;;5.18;2.80;;;;;;;;;;5066692;28;20061;-70
2022/06/29 05:47:59;;;;;;;10.15;3.20;;;;;;;;;;5070160;28;20117;-70
2022/06/29 05:50:27;;;;;;;5.82;2.88;;;;;;;;;;5071847;28;20491;-70
2022/06/29 05:52:54;;;;;;;6.85;2.85;;;;;;;;;;5074323;28;20044;-70
2022/06/29 05:55:21;;;;;;;7.05;2.90;;;;;;;;;;5067006;28;20053;-70
2022/06/29 05:57:49;;;;;;;5.88;2.40;;;;;;;;;;5065908;28;20052;-70
2022/06/29 06:00:17;;;;;;;5.57;2.85;;;;;;;;;;5058606;28;20139;-70
2022/06/29 06:02:44;;;;;;;8.73;3.15;;;;;;;;;;5069109;28;20063;-70
2022/06/29 06:05:11;;;;;;;4.97;2.70;;;;;;;;;;5067417;28;20055;-70
2022/06/29 06:07:39;;;;;;;3.92;2.45;;;;;;;;;;5077400;28;20052;-70
2022/06/29 06:10:06;;;;;;;4.90;2.65;;;;;;;;;;5070068;28;20053;-70
2022/06/29 06:12:33;;;;;;;6.53;2.50;;;;;;;;;;5067816;28;20052;-70
2022/06/29 06:15:02;;;;;;;5.95;3.03;;;;;;;;;;5065728;28;20056;-70
2022/06/29 06:17:29;;;;;;;7.00;2.53;;;;;;;;;;5070259;28;20396;-70
2022/06/29 06:19:58;;;;;;;8.27;2.95;;;;;;;;;;5067789;28;20371;-70
2022/06/29 06:22:25;;;;;;;5.78;2.55;;;;;;;;;;5067066;28;20105;-70
2022/06/29 06:24:52;;;;;;;5.97;2.40;;;;;;;;;;5065264;28;20057;-70
2022/06/29 06:27:20;;;;;;;7.93;2.60;;;;;;;;;;5066476;28;20045;-70
2022/06/29 06:29:47;;;;;;;4.00;2.20;;;;;;;;;;5067511;28;20522;-70
2022/06/29 06:32:16;;;;;;;6.32;2.65;;;;;;;;;;5071251;28;20055;-70
2022/06/29 06:34:43;;;;;;;6.20;2.72;;;;;;;;;;5061611;28;20057;-70
2022/06/29 06:37:11;;;;;;;4.45;2.00;;;;;;;;;;5060168;28;20102;-70
2022/06/29 06:39:38;;;;;;;5.53;2.00;;;;;;;;;;5061133;28;20498;-70
2022/06/29 06:42:04;;;;;;;6.05;2.50;;;;;;;;;;5062322;28;20380;-70
2022/06/29 06:44:31;;;;;;;8.73;2.30;;;;;;;;;;5059443;28;20059;-70
2022/06/29 06:46:59;;;;;;;5.72;2.60;;;;;;;;;;5066378;28;20048;-70
2022/06/29 06:49:27;;;;;;;5.32;2.35;;;;;;;;;;5059565;28;20119;-70
2022/06/29 06:51:54;;;;;;;4.88;2.42;;;;;;;;;;5060889;28;20098;-70
2022/06/29 06:54:21;;;;;;;7.55;2.60;;;;;;;;;;5055484;28;20048;-70
2022/06/29 06:56:49;;;;;;;5.55;2.50;;;;;;;;;;5066684;28;20045;-70
2022/06/29 06:59:16;;;;;;;5.30;2.40;;;;;;;;;;5060935;28;20075;-70
2022/06/29 07:01:43;;;;;;;5.55;1.92;;;;;;;;;;5064639;28;20060;-70
2022/06/29 07:04:10;;;;;;;8.27;2.28;;;;;;;;;;5068291;28;20060;-70
2022/06/29 07:06:39;;;;;;;4.85;2.05;;;;;;;;;;5062291;28;20044;-70
2022/06/29 07:09:06;;;;;;;7.25;2.17;;;;;;;;;;5061307;28;20053;-70
2022/06/29 07:11:33;;;;;;;8.65;2.70;;;;;;;;;;5062859;28;20064;-70
2022/06/29 07:14:00;;;;;;;4.00;1.90;;;;;;;;;;5070673;28;20059;-70
2022/06/29 07:16:29;;;;;;;4.88;2.08;;;;;;;;;;5060296;28;20053;-70
2022/06/29 07:18:56;;;;;;;4.28;1.90;;;;;;;;;;5058199;28;20056;-70
2022/06/29 07:21:23;;;;;;;7.50;2.20;;;;;;;;;;5058884;28;20052;-70
2022/06/29 07:23:52;;;;;;;5.25;1.80;;;;;;;;;;5055853;28;20045;-70
2022/06/29 07:26:19;;;;;;;3.05;1.73;;;;;;;;;;5057618;28;20067;-70
2022/06/29 07:28:47;;;;;;;7.05;1.83;;;;;;;;;;5068159;28;20484;-70
2022/06/29 07:31:14;;;;;;;5.25;1.95;;;;;;;;;;5066838;28;20451;-70
2022/06/29 07:33:41;;;;;;;7.22;1.67;;;;;;;;;;5063118;28;20102;-71
2022/06/29 07:36:08;;;;;;;6.40;1.90;;;;;;;;;;5066270;28;20049;-71
2022/06/29 07:38:36;;;;;;;7.22;1.60;;;;;;;;;;5070722;28;20055;-71
2022/06/29 07:41:05;;;;;;;6.50;1.42;;;;;;;;;;5063178;28;20044;-71
2022/06/29 07:43:32;;;;;;;3.20;1.65;;;;;;;;;;5069857;28;20329;-71
2022/06/29 07:45:59;;;;;;;5.05;1.40;;;;;;;;;;5065203;28;20059;-71
2022/06/29 07:48:27;;;;;;;2.90;1.33;;;;;;;;;;5066587;28;20045;-71
2022/06/29 07:50:54;;;;;;;6.25;1.60;;;;;;;;;;5061555;28;20056;-71
2022/06/29 07:53:21;;;;;;;6.20;1.50;;;;;;;;;;5068574;28;20048;-71
2022/06/29 07:55:48;;;;;;;10.77;1.48;;;;;;;;;;5065802;28;20071;-71
2022/06/29 07:58:17;;;;;;;3.35;1.20;;;;;;;;;;5063805;28;20048;-71
2022/06/29 08:00:45;;;;;;;10.32;1.30;;;;;;;;;;5063436;28;20121;-71
2022/06/29 08:03:13;;;;;;;5.47;1.10;;;;;;;;;;5057955;28;20063;-71
2022/06/29 08:05:40;;;;;;;4.53;1.50;;;;;;;;;;5064520;28;20063;-71
2022/06/29 08:08:08;;;;;;;5.05;1.40;;;;;;;;;;5070347;28;20131;-71
2022/06/29 08:10:35;;;;;;;7.38;1.20;;;;;;;;;;5066655;28;20060;-71
2022/06/29 08:13:02;;;;;;;4.63;1.30;;;;;;;;;;5066549;28;20061;-71
2022/06/29 08:15:31;;;;;;;4.05;1.17;;;;;;;;;;5065000;28;20048;-71
2022/06/29 08:17:59;;;;;;;3.70;1.20;;;;;;;;;;5072044;28;20048;-71
2022/06/29 08:20:28;;;;;;;2.67;1.45;;;;;;;;;;5063111;28;20071;-71
2022/06/29 08:22:55;;;;;;;3.75;1.58;;;;;;;;;;5064430;28;20060;-71
2022/06/29 08:25:22;;;;;;;2.83;1.38;;;;;;;;;;5059335;28;20457;-71
2022/06/29 08:27:52;;;;;;;3.00;1.50;;;;;;;;;;5062781;28;20398;-71
2022/06/29 08:30:19;;;;;;;7.57;1.50;;;;;;;;;;5057966;28;20145;-71
2022/06/29 08:32:49;;;;;;;5.63;1.67;;;;;;;;;;5055061;28;20056;-71
2022/06/29 08:35:17;;;;;;;3.40;1.40;;;;;;;;;;5058292;28;20381;-71
2022/06/29 08:37:45;;;;;;;3.60;1.40;;;;;;;;;;5060294;28;21485;-71
2022/06/29 08:40:14;;;;;;;4.18;1.60;;;;;;;;;;5057610;28;20048;-71
2022/06/29 08:42:41;;;;;;;4.57;1.42;;;;;;;;;;5057209;28;20131;-71
2022/06/29 08:45:09;;;;;;;6.18;1.95;;;;;;;;;;5058859;28;20045;-71
2022/06/29 08:47:37;;;;;;;8.90;1.55;;;;;;;;;;5063158;28;20623;-71
2022/06/29 08:50:06;;;;;;;6.50;1.70;;;;;;;;;;5058209;28;20083;-71
2022/06/29 08:52:35;;;;;;;3.25;1.40;;;;;;;;;;5061374;28;20817;-71
2022/06/29 08:55:04;;;;;;;5.82;1.85;;;;;;;;;;5057650;28;20052;-71
2022/06/29 08:57:32;;;;;;;4.38;1.80;;;;;;;;;;5060089;28;20063;-71
2022/06/29 08:59:59;;;;;;;5.55;1.63;;;;;;;;;;5059962;28;20097;-71
2022/06/29 09:02:26;;;;;;;4.15;1.33;;;;;;;;;;5059198;28;20495;-71
2022/06/29 09:04:54;;;;;;;8.10;1.45;;;;;;;;;;5058779;28;20818;-71
2022/06/29 09:07:23;;;;;;;8.45;1.65;;;;;;;;;;5061207;28;20044;-71
2022/06/29 09:10:03;;;;;;;4.70;1.50;;;;;;;;;;5059819;28;20515;-71
2022/06/29 09:12:31;;;;;;;7.47;1.35;;;;;;;;;;5055108;28;20044;-71
2022/06/29 09:14:59;;;;;;;2.80;1.60;;;;;;;;;;5059625;28;20179;-71
2022/06/29 09:17:27;;;;;;;4.68;1.70;;;;;;;;;;5056528;28;20393;-71
2022/06/29 09:19:56;;;;;;;2.55;1.42;;;;;;;;;;5059392;28;20123;-71
2022/06/29 09:22:25;;;;;;;3.22;1.40;;;;;;;;;;5064192;28;20063;-71
2022/06/29 09:24:52;;;;;;;2.67;1.50;;;;;;;;;;5058744;28;20044;-71
2022/06/29 09:27:19;;;;;;;7.28;1.42;;;;;;;;;;5058700;28;20049;-71
2022/06/29 09:29:46;;;;;;;4.53;1.60;;;;;;;;;;5061727;28;20060;-71
2022/06/29 09:32:15;;;;;;;8.52;1.60;;;;;;;;;;5062166;28;20059;-71
2022/06/29 09:34:43;;;;;;;5.03;1.30;;;;;;;;;;5062267;28;20106;-71
2022/06/29 09:37:12;;;;;;;4.70;1.75;;;;;;;;;;5063789;28;20488;-71
2022/06/29 09:39:42;;;;;;;4.35;1.23;;;;;;;;;;5062753;28;20052;-71
2022/06/29 09:42:10;;;;;;;2.75;1.33;;;;;;;;;;5064823;28;20048;-71
2022/06/29 09:44:37;;;;;;;5.35;1.42;;;;;;;;;;5062320;28;20134;-71
2022/06/29 09:47:06;;;;;;;5.35;1.40;;;;;;;;;;5066375;28;20059;-71
2022/06/29 09:49:34;;;;;;;8.27;1.52;;;;;;;;;;5066413;28;20045;-71
2022/06/29 09:52:03;;;;;;;3.17;1.80;;;;;;;;;;5064254;28;20694;-71
2022/06/29 09:54:32;;;;;;;6.05;1.20;;;;;;;;;;5060525;28;20057;-71
2022/06/29 09:57:01;;;;;;;6.20;1.50;;;;;;;;;;5057914;28;20481;-71
2022/06/29 10:05:04;;;;;;;4.15;1.30;;;;;;;;;;5051868;28;20057;-71
2022/06/29 10:07:32;;;;;;;3.47;1.30;;;;;;;;;;5057887;28;20106;-71
2022/06/29 10:10:00;;;;;;;6.13;1.50;;;;;;;;;;5060367;28;20048;-71
2022/06/29 10:15:22;;;;;;;3.03;1.30;;;;;;;;;;5060124;28;20163;-71
2022/06/29 10:17:52;;;;;;;3.03;1.20;;;;;;;;;;5059150;28;20109;-71
2022/06/29 10:20:37;;;;;;;2.03;1.08;;;;;;;;;;5069709;28;20138;-71
2022/06/29 10:23:04;;;;;;;5.70;1.50;;;;;;;;;;5062999;28;20056;-71
2022/06/29 10:25:32;;;;;;;7.40;1.20;;;;;;;;;;5066211;28;20495;-71
2022/06/29 10:28:13;;;;;;;2.63;1.10;;;;;;;;;;5065322;28;20052;-71
2022/06/29 10:30:40;;;;;;;7.55;1.50;;;;;;;;;;5067951;28;20072;-71
2022/06/29 10:33:26;;;;;;;2.38;1.20;;;;;;;;;;5068918;28;20044;-71
2022/06/29 10:35:58;;;;;;;6.28;1.10;;;;;;;;;;5065746;28;20662;-71
2022/06/29 10:38:25;;;;;;;2.63;1.33;;;;;;;;;;5069761;28;20137;-71
2022/06/29 10:41:07;;;;;;;4.43;1.30;;;;;;;;;;5064449;28;20053;-71
2022/06/29 10:43:37;;;;;;;3.67;1.50;;;;;;;;;;5066486;28;20057;-72
2022/06/29 10:46:04;;;;;;;5.97;1.30;;;;;;;;;;5066318;28;20205;-72
2022/06/29 10:48:32;;;;;;;7.57;1.25;;;;;;;;;;5068788;28;20514;-72
2022/06/29 10:50:59;;;;;;;2.13;1.20;;;;;;;;;;5069260;28;20537;-72
2022/06/29 10:53:26;;;;;;;2.15;1.30;;;;;;;;;;5067493;28;20102;-72
2022/06/29 10:55:57;;;;;;;2.13;1.30;;;;;;;;;;5061684;28;20487;-72
2022/06/29 10:58:25;;;;;;;3.83;1.30;;;;;;;;;;5065300;28;20108;-72
2022/06/29 11:00:54;;;;;;;3.40;1.10;;;;;;;;;;5068284;28;20213;-72
2022/06/29 11:03:23;;;;;;;5.15;1.38;;;;;;;;;;5066832;28;20055;-72
2022/06/29 11:15:39;;;;;;;2.20;1.00;;;;;;;;;;5064039;28;20814;-72
2022/06/29 11:16:56;;;;;;;3.88;1.20;;;;;;;;;;5062270;28;20478;-72
2022/06/29 11:19:28;;;;;;;5.00;1.30;;;;;;;;;;5067473;28;20099;-72
2022/06/29 11:22:13;;;;;;;2.08;1.20;;;;;;;;;;5071364;28;20079;-72
2022/06/29 11:24:57;;;;;;;3.55;1.30;;;;;;;;;;5062466;28;20514;-72
2022/06/29 11:27:31;;;;;;;1.80;1.10;;;;;;;;;;5065752;28;20057;-72
2022/06/29 11:29:59;;;;;;;7.53;1.50;;;;;;;;;;5066102;28;20139;-72
2022/06/29 11:32:34;;;;;;;9.40;1.40;;;;;;;;;;5062466;28;20463;-71
2022/06/29 11:35:01;;;;;;;3.25;1.30;;;;;;;;;;5064061;28;20460;-71
2022/06/29 11:37:28;;;;;;;5.57;1.38;;;;;;;;;;5058557;28;20057;-70
2022/06/29 11:39:55;;;;;;;2.50;1.40;;;;;;;;;;5066081;28;20479;-70
2022/06/29 11:45:09;;;;;;;2.92;1.10;;;;;;;;;;5066363;28;20059;-70
2022/06/29 11:47:37;;;;;;;1.83;1.23;;;;;;;;;;5067452;28;20048;-70
2022/06/29 11:50:13;;;;;;;4.28;1.33;;;;;;;;;;5058734;28;20059;-70
2022/06/29 11:52:41;;;;;;;2.42;1.20;;;;;;;;;;5068600;28;20510;-70
2022/06/29 11:55:08;;;;;;;2.30;1.50;;;;;;;;;;5065943;28;20056;-70
2022/06/29 11:57:36;;;;;;;2.72;1.30;;;;;;;;;;5065805;28;20056;-70
2022/06/29 12:00:06;;;;;;;2.65;1.35;;;;;;;;;;5065897;28;20048;-70
2022/06/29 12:02:34;;;;;;;2.25;1.40;;;;;;;;;;5066204;28;20147;-70
2022/06/29 12:05:03;;;;;;;3.67;1.55;;;;;;;;;;5062990;28;20067;-70
2022/06/29 12:07:31;;;;;;;1.60;1.50;;;;;;;;;;5067592;28;20044;-70
2022/06/29 12:09:59;;;;;;;2.97;1.30;;;;;;;;;;5062140;28;20114;-70
2022/06/29 12:12:27;;;;;;;1.60;1.10;;;;;;;;;;5063114;28;20052;-70
2022/06/29 12:14:54;;;;;;;2.75;1.40;;;;;;;;;;5064894;28;20523;-70
2022/06/29 12:17:21;;;;;;;2.75;1.40;;;;;;;;;;5061268;28;20052;-70
2022/06/29 12:19:48;;;;;;;7.18;1.45;;;;;;;;;;5059891;28;20052;-70
2022/06/29 12:22:19;;;;;;;7.57;1.60;;;;;;;;;;5068946;28;20049;-70
2022/06/29 12:24:46;;;;;;;2.40;1.38;;;;;;;;;;5072677;28;20075;-70
2022/06/29 12:27:14;;;;;;;1.85;1.40;;;;;;;;;;5067478;28;20063;-70
2022/06/29 12:29:41;;;;;;;5.72;1.77;;;;;;;;;;5065111;28;20045;-70
2022/06/29 12:32:08;;;;;;;2.45;1.50;;;;;;;;;;5064767;28;20044;-70
2022/06/29 12:34:36;;;;;;;4.80;1.60;;;;;;;;;;5068979;28;20792;-70
2022/06/29 12:37:03;;;;;;;2.70;1.48;;;;;;;;;;5069169;28;20060;-70
2022/06/29 12:39:32;;;;;;;1.88;1.40;;;;;;;;;;5064851;28;20523;-70
2022/06/29 12:41:59;;;;;;;2.25;1.40;;;;;;;;;;5060628;28;20169;-70
2022/06/29 12:44:26;;;;;;;4.70;1.38;;;;;;;;;;5062718;28;20064;-70
2022/06/29 12:46:54;;;;;;;2.50;1.35;;;;;;;;;;5067735;28;20472;-70
2022/06/29 12:49:21;;;;;;;6.78;1.80;;;;;;;;;;5065197;28;20361;-70
2022/06/29 12:51:48;;;;;;;1.83;1.50;;;;;;;;;;5071192;28;20055;-70
2022/06/29 12:54:17;;;;;;;4.75;1.65;;;;;;;;;;5062714;28;20803;-70
2022/06/29 12:56:45;;;;;;;2.38;1.50;;;;;;;;;;5068157;28;20063;-70
2022/06/29 12:59:14;;;;;;;3.60;1.85;;;;;;;;;;5065882;28;20458;-70
2022/06/29 13:01:41;;;;;;;2.03;1.50;;;;;;;;;;5059850;28;20502;-70
2022/06/29 13:04:08;;;;;;;3.85;1.50;;;;;;;;;;5065730;28;20063;-70
2022/06/29 13:06:36;;;;;;;2.63;1.50;;;;;;;;;;5066848;28;20538;-70
2022/06/29 13:09:05;;;;;;;2.10;1.60;;;;;;;;;;5061355;28;20499;-70
2022/06/29 13:11:32;;;;;;;2.20;1.60;;;;;;;;;;5059731;28;20109;-70
2022/06/29 13:14:01;;;;;;;1.90;1.30;;;;;;;;;;5066257;28;20135;-70
2022/06/29 13:16:28;;;;;;;4.15;1.63;;;;;;;;;;5063142;28;20044;-70
2022/06/29 13:18:55;;;;;;;2.85;1.60;;;;;;;;;;5064153;28;20134;-70
2022/06/29 13:21:23;;;;;;;2.40;1.65;;;;;;;;;;5066797;28;20059;-70
2022/06/29 13:23:50;;;;;;;5.45;1.80;;;;;;;;;;5064881;28;20086;-70
2022/06/29 13:26:17;;;;;;;3.40;1.92;;;;;;;;;;5063646;28;20119;-70
2022/06/29 13:28:45;;;;;;;3.67;1.80;;;;;;;;;;5063992;28;21108;-70
2022/06/29 13:31:13;;;;;;;3.10;1.60;;;;;;;;;;5061221;28;20044;-70
2022/06/29 13:33:41;;;;;;;4.13;2.05;;;;;;;;;;5064893;28;20051;-70
2022/06/29 13:36:08;;;;;;;3.47;1.75;;;;;;;;;;5065429;28;20059;-70
2022/06/29 13:38:35;;;;;;;2.53;1.63;;;;;;;;;;5065128;28;20062;-70
2022/06/29 13:41:02;;;;;;;5.57;1.73;;;;;;;;;;5064453;28;20057;-70
2022/06/29 13:43:30;;;;;;;2.90;1.80;;;;;;;;;;5063358;28;20697;-70
2022/06/29 13:45:57;;;;;;;4.70;1.90;;;;;;;;;;5063847;28;20098;-70
2022/06/29 13:48:25;;;;;;;5.90;1.80;;;;;;;;;;5063493;28;20045;-70
2022/06/29 13:50:53;;;;;;;2.50;1.58;;;;;;;;;;5059743;28;20055;-70
2022/06/29 13:53:20;;;;;;;5.10;1.50;;;;;;;;;;5064467;28;20136;-70
2022/06/29 13:55:47;;;;;;;5.32;1.30;;;;;;;;;;5063480;28;20052;-70
2022/06/29 13:58:15;;;;;;;3.63;1.42;;;;;;;;;;5064379;28;20048;-70
2022/06/29 14:00:42;;;;;;;1.98;1.50;;;;;;;;;;5067202;28;20052;-70
2022/06/29 14:03:09;;;;;;;6.88;1.55;;;;;;;;;;5073599;28;20059;-70
2022/06/29 14:05:38;;;;;;;1.42;1.30;;;;;;;;;;5067391;28;20060;-70
2022/06/29 14:08:05;;;;;;;2.25;1.40;;;;;;;;;;5069912;28;20118;-70
2022/06/29 14:10:33;;;;;;;3.20;1.50;;;;;;;;;;5066668;28;20054;-70
2022/06/29 14:13:00;;;;;;;3.28;1.60;;;;;;;;;;5069634;28;20052;-70
2022/06/29 14:15:27;;;;;;;1.70;1.20;;;;;;;;;;5065229;28;20127;-70
2022/06/29 14:17:54;;;;;;;2.03;1.50;;;;;;;;;;5078845;28;20127;-70
2022/06/29 14:20:22;;;;;;;3.60;1.40;;;;;;;;;;5065466;28;20110;-70
2022/06/29 14:22:51;;;;;;;1.40;1.20;;;;;;;;;;5065832;28;20056;-70
2022/06/29 14:25:18;;;;;;;2.67;1.40;;;;;;;;;;5062463;28;20093;-70
2022/06/29 14:27:45;;;;;;;2.13;1.52;;;;;;;;;;5062742;28;20107;-70
2022/06/29 14:30:13;;;;;;;4.43;1.67;;;;;;;;;;5066167;28;20048;-70
2022/06/29 14:32:41;;;;;;;2.72;1.50;;;;;;;;;;5063014;28;20106;-70
2022/06/29 14:35:09;;;;;;;2.08;1.58;;;;;;;;;;5067633;28;20088;-70
2022/06/29 14:37:36;;;;;;;2.45;1.33;;;;;;;;;;5065981;28;20056;-70
2022/06/29 14:40:05;;;;;;;5.88;1.70;;;;;;;;;;5067565;28;20040;-70
2022/06/29 14:42:35;;;;;;;4.57;1.60;;;;;;;;;;5066267;28;20064;-70
2022/06/29 14:45:03;;;;;;;2.72;1.50;;;;;;;;;;5064474;28;20147;-70
2022/06/29 14:47:30;;;;;;;2.20;1.67;;;;;;;;;;5069533;28;20064;-70
2022/06/29 14:49:57;;;;;;;3.67;1.40;;;;;;;;;;5067939;28;20053;-70
2022/06/29 14:52:24;;;;;;;6.18;1.90;;;;;;;;;;5068764;28;20440;-70
2022/06/29 14:54:53;;;;;;;3.85;1.48;;;;;;;;;;5068535;28;20048;-69
2022/06/29 14:57:22;;;;;;;3.20;1.30;;;;;;;;;;5067740;28;20434;-69
2022/06/29 14:59:50;;;;;;;3.75;1.65;;;;;;;;;;5070267;28;20149;-70
2022/06/29 15:02:18;;;;;;;1.63;1.30;;;;;;;;;;5066586;28;20483;-70
2022/06/29 15:04:45;;;;;;;2.85;1.40;;;;;;;;;;5065116;28;20059;-70
2022/06/29 15:07:13;;;;;;;2.85;1.40;;;;;;;;;;5057016;28;20064;-70
2022/06/29 15:09:40;;;;;;;2.55;1.20;;;;;;;;;;5064419;28;20576;-70
2022/06/29 15:12:08;;;;;;;1.73;1.30;;;;;;;;;;5064662;28;20784;-70